createdAt,value
2022-09-04T00:02:07.186Z,45.97
2022-09-04T00:04:44.527Z,46.21
2022-09-04T00:07:14.294Z,45.81
2022-09-04T00:10:09.806Z,46.19
2022-09-04T00:12:59.574Z,46.30
2022-09-04T00:15:35.605Z,45.83
2022-09-04T00:18:02.547Z,46.47
2022-09-04T00:20:34.251Z,46.28
2022-09-04T00:23:04.405Z,46.39
2022-09-04T00:25:50.806Z,46.47
2022-09-04T00:28:25.575Z,46.34
2022-09-04T00:30:58.443Z,46.44
2022-09-04T00:33:54.663Z,46.60
2022-09-04T00:36:22.763Z,46.98
2022-09-04T00:38:54.198Z,46.25
2022-09-04T00:41:39.361Z,46.73
2022-09-04T00:44:24.714Z,47.29
2022-09-04T00:47:20.308Z,47.74
2022-09-04T00:49:53.127Z,47.16
2022-09-04T00:52:38.203Z,48.01
2022-09-04T00:55:05.294Z,47.55
2022-09-04T00:57:32.139Z,47.92
2022-09-04T01:00:09.022Z,47.81
2022-09-04T01:02:36.230Z,48.44
2022-09-04T01:05:19.843Z,48.51
2022-09-04T01:07:56.752Z,48.25
2022-09-04T01:10:56.479Z,47.95
2022-09-04T01:13:42.351Z,49.32
2022-09-04T01:16:31.562Z,48.65
2022-09-04T01:18:58.632Z,48.81
2022-09-04T01:21:57.856Z,48.23
2022-09-04T01:24:25.023Z,48.52
2022-09-04T01:27:10.273Z,48.68
2022-09-04T01:29:58.161Z,48.81
2022-09-04T01:32:43.797Z,48.89
2022-09-04T01:35:29.463Z,49.08
2022-09-04T01:38:03.198Z,49.06
2022-09-04T01:40:35.502Z,49.07
2022-09-04T01:43:06.082Z,49.11
2022-09-04T01:45:53.121Z,49.57
2022-09-04T01:48:23.317Z,49.60
2022-09-04T01:50:56.605Z,49.44
2022-09-04T01:53:28.182Z,49.82
2022-09-04T01:56:21.414Z,50.16
2022-09-04T01:58:54.983Z,49.50
2022-09-04T02:01:42.451Z,49.92
2022-09-04T02:04:12.810Z,49.29
2022-09-04T02:06:50.567Z,49.61
2022-09-04T02:09:29.648Z,49.67
2022-09-04T02:12:03.230Z,49.71
2022-09-04T02:14:42.997Z,50.18
2022-09-04T02:17:12.361Z,50.48
2022-09-04T02:19:42.181Z,49.89
2022-09-04T02:22:09.022Z,50.07
2022-09-04T02:24:36.075Z,50.49
2022-09-04T02:27:08.806Z,50.46
2022-09-04T02:29:48.880Z,50.58
2022-09-04T02:32:18.806Z,50.62
2022-09-04T02:34:48.528Z,50.77
2022-09-04T02:37:20.662Z,50.90
2022-09-04T02:39:56.689Z,51.60
2022-09-04T02:42:32.415Z,51.25
2022-09-04T02:45:30.347Z,51.07
2022-09-04T02:48:13.939Z,51.24
2022-09-04T02:51:01.211Z,51.18
2022-09-04T02:53:46.637Z,51.92
2022-09-04T02:56:16.713Z,51.65
2022-09-04T02:58:44.318Z,51.86
2022-09-04T03:01:22.652Z,51.66
2022-09-04T03:04:16.085Z,52.05
2022-09-04T03:06:55.531Z,52.06
2022-09-04T03:09:29.274Z,52.19
2022-09-04T03:12:00.693Z,52.08
2022-09-04T03:14:36.181Z,52.32
2022-09-04T03:17:03.099Z,52.13
2022-09-04T03:19:48.939Z,52.55
2022-09-04T03:22:19.210Z,52.43
2022-09-04T03:24:46.182Z,52.55
2022-09-04T03:27:14.882Z,52.83
2022-09-04T03:29:51.354Z,52.84
2022-09-04T03:32:18.429Z,52.79
2022-09-04T03:34:48.494Z,52.77
2022-09-04T03:37:15.359Z,52.90
2022-09-04T03:39:42.758Z,52.73
2022-09-04T03:42:09.691Z,52.87
2022-09-04T03:44:36.545Z,52.64
2022-09-04T03:47:27.075Z,52.75
2022-09-04T03:50:12.360Z,52.54
2022-09-04T03:52:39.503Z,52.64
2022-09-04T03:55:33.693Z,52.82
2022-09-04T03:58:19.198Z,52.76
2022-09-04T04:01:13.625Z,53.50
2022-09-04T04:03:59.546Z,53.32
2022-09-04T04:06:26.423Z,53.26
2022-09-04T04:08:59.370Z,53.23
2022-09-04T04:11:43.685Z,53.65
2022-09-04T04:14:30.973Z,54.18
2022-09-04T04:17:20.300Z,54.17
2022-09-04T04:20:04.704Z,54.22
2022-09-04T04:22:45.233Z,54.64
2022-09-04T04:25:27.448Z,54.30
2022-09-04T04:27:58.228Z,55.17
2022-09-04T04:30:26.409Z,54.60
2022-09-04T04:32:56.757Z,54.55
2022-09-04T04:35:35.967Z,54.74
2022-09-04T04:38:06.136Z,54.89
2022-09-04T04:40:42.215Z,54.76
2022-09-04T04:43:29.527Z,55.00
2022-09-04T04:46:15.434Z,54.96
2022-09-04T04:49:01.310Z,54.90
2022-09-04T04:51:40.853Z,54.70
2022-09-04T04:54:20.455Z,54.69
2022-09-04T04:56:54.136Z,54.38
2022-09-04T04:59:24.623Z,54.59
2022-09-04T05:01:57.932Z,54.27
2022-09-04T05:04:30.358Z,55.43
2022-09-04T05:07:06.782Z,55.21
2022-09-04T05:09:40.354Z,55.70
2022-09-04T05:12:33.662Z,55.66
2022-09-04T05:15:10.267Z,55.37
2022-09-04T05:17:55.717Z,55.07
2022-09-04T05:20:50.526Z,55.00
2022-09-04T05:23:24.939Z,54.63
2022-09-04T05:26:08.101Z,54.88
2022-09-04T05:28:50.260Z,54.10
2022-09-04T05:31:25.312Z,53.11
2022-09-04T05:34:04.452Z,52.50
2022-09-04T05:36:37.731Z,51.21
2022-09-04T05:39:10.545Z,50.97
2022-09-04T05:41:43.526Z,49.69
2022-09-04T05:44:10.363Z,48.98
2022-09-04T05:46:55.965Z,48.36
2022-09-04T05:49:31.936Z,47.89
2022-09-04T05:52:17.570Z,46.70
2022-09-04T05:55:04.902Z,46.06
2022-09-04T05:57:41.226Z,46.23
2022-09-04T06:00:08.395Z,45.59
2022-09-04T06:03:05.250Z,45.03
2022-09-04T06:05:39.987Z,45.39
2022-09-04T06:08:32.814Z,44.60
2022-09-04T06:11:38.519Z,44.65
2022-09-04T06:14:24.099Z,43.96
2022-09-04T06:16:54.245Z,44.54
2022-09-04T06:19:36.126Z,44.76
2022-09-04T06:22:26.347Z,44.11
2022-09-04T06:25:09.270Z,44.71
2022-09-04T06:27:56.481Z,44.52
2022-09-04T06:30:26.433Z,43.53
2022-09-04T06:33:19.965Z,43.16
2022-09-04T06:35:47.331Z,43.33
2022-09-04T06:38:14.708Z,42.35
2022-09-04T06:41:00.474Z,41.93
2022-09-04T06:43:36.562Z,41.24
2022-09-04T06:46:11.279Z,40.77
2022-09-04T06:49:02.034Z,40.35
2022-09-04T06:51:37.954Z,40.09
2022-09-04T06:54:15.723Z,39.68
2022-09-04T06:57:01.585Z,38.79
2022-09-04T06:59:47.445Z,39.30
2022-09-04T07:02:28.978Z,38.62
2022-09-04T07:04:59.218Z,37.40
2022-09-04T07:07:32.893Z,36.71
2022-09-04T07:10:05.140Z,35.81
2022-09-04T07:12:43.321Z,34.74
2022-09-04T07:15:18.134Z,34.83
2022-09-04T07:18:06.924Z,34.87
2022-09-04T07:20:52.798Z,34.42
2022-09-04T07:23:36.730Z,32.39
2022-09-04T07:26:06.562Z,32.69
2022-09-04T07:28:33.522Z,31.69
2022-09-04T07:31:18.326Z,31.36
2022-09-04T07:33:46.017Z,30.94
2022-09-04T07:36:36.020Z,30.49
2022-09-04T07:39:21.861Z,30.00
2022-09-04T07:41:56.776Z,28.64
2022-09-04T07:44:24.394Z,28.57
2022-09-04T07:47:13.551Z,27.25
2022-09-04T07:49:43.847Z,27.16
2022-09-04T07:52:23.022Z,26.72
2022-09-04T07:55:05.183Z,25.41
2022-09-04T07:57:38.224Z,24.68
2022-09-04T08:00:13.951Z,23.96
2022-09-04T08:02:43.566Z,24.17
2022-09-04T08:05:11.519Z,24.54
2022-09-04T08:07:38.779Z,23.67
2022-09-04T08:10:11.523Z,24.20
2022-09-04T08:12:42.306Z,23.39
2022-09-04T08:15:10.562Z,23.47
2022-09-04T08:17:43.246Z,23.41
2022-09-04T08:20:29.235Z,23.37
2022-09-04T08:23:02.268Z,22.79
2022-09-04T08:25:33.093Z,22.60
2022-09-04T08:28:35.594Z,23.20
2022-09-04T08:31:09.380Z,22.82
2022-09-04T08:33:53.303Z,22.55
2022-09-04T08:36:25.830Z,22.24
2022-09-04T08:38:58.439Z,22.12
2022-09-04T08:41:34.956Z,22.06
2022-09-04T08:44:20.683Z,21.58
2022-09-04T08:46:59.613Z,20.95
2022-09-04T08:49:35.545Z,21.08
2022-09-04T08:52:08.430Z,20.64
2022-09-04T08:54:35.796Z,20.19
2022-09-04T08:57:17.892Z,20.33
2022-09-04T09:00:00.073Z,20.23
2022-09-04T09:02:27.002Z,20.48
2022-09-04T09:05:13.061Z,19.67
2022-09-04T09:08:06.798Z,19.86
2022-09-04T09:10:33.874Z,21.38
2022-09-04T09:13:20.952Z,21.38
2022-09-04T09:15:48.030Z,21.94
2022-09-04T09:18:18.145Z,21.61
2022-09-04T09:21:01.388Z,21.45
2022-09-04T09:23:28.875Z,22.31
2022-09-04T09:26:06.817Z,22.51
2022-09-04T09:28:52.706Z,23.21
2022-09-04T09:31:38.463Z,22.84
2022-09-04T09:34:24.270Z,23.08
2022-09-04T09:37:01.902Z,23.06
2022-09-04T09:39:29.268Z,23.65
2022-09-04T09:41:59.924Z,23.59
2022-09-04T09:44:45.747Z,23.81
2022-09-04T09:47:28.313Z,23.85
2022-09-04T09:49:59.325Z,24.13
2022-09-04T09:52:28.715Z,24.12
2022-09-04T09:55:14.256Z,24.65
2022-09-04T09:57:41.413Z,24.21
2022-09-04T10:00:10.949Z,25.17
2022-09-04T10:02:43.835Z,25.48
2022-09-04T10:05:13.754Z,25.36
2022-09-04T10:07:44.309Z,25.38
2022-09-04T10:10:36.279Z,25.27
2022-09-04T10:13:06.247Z,25.75
2022-09-04T10:15:39.251Z,26.11
2022-09-04T10:18:26.856Z,25.87
2022-09-04T10:21:00.348Z,26.07
2022-09-04T10:23:30.538Z,26.08
2022-09-04T10:26:15.673Z,26.45
2022-09-04T10:29:01.607Z,26.52
2022-09-04T10:31:34.729Z,26.02
2022-09-04T10:34:10.814Z,26.08
2022-09-04T10:36:46.638Z,25.75
2022-09-04T10:39:55.550Z,25.95
2022-09-04T10:42:31.881Z,25.76
2022-09-04T10:45:07.942Z,25.69
2022-09-04T10:47:47.545Z,25.40
2022-09-04T10:50:33.285Z,25.96
2022-09-04T10:53:31.839Z,25.85
2022-09-04T10:56:09.348Z,25.05
2022-09-04T10:58:39.714Z,24.74
2022-09-04T11:01:19.079Z,25.19
2022-09-04T11:03:58.139Z,25.69
2022-09-04T11:06:34.260Z,24.89
2022-09-04T11:09:19.869Z,24.16
2022-09-04T11:11:53.005Z,23.59
2022-09-04T11:14:42.710Z,23.88
2022-09-04T11:17:30.590Z,25.54
2022-09-04T11:20:24.653Z,27.30
2022-09-04T11:23:10.413Z,24.73
2022-09-04T11:25:57.121Z,24.71
2022-09-04T11:28:44.466Z,23.95
2022-09-04T11:31:17.511Z,23.34
2022-09-04T11:34:03.245Z,22.35
2022-09-04T11:36:35.497Z,24.14
2022-09-04T11:39:21.373Z,23.03
2022-09-04T11:42:08.505Z,23.30
2022-09-04T11:44:41.179Z,22.65
2022-09-04T11:47:23.531Z,21.41
2022-09-04T11:49:50.419Z,21.81
2022-09-04T11:52:41.946Z,22.35
2022-09-04T11:55:24.918Z,21.58
2022-09-04T11:58:03.533Z,21.07
2022-09-04T12:00:43.086Z,20.86
2022-09-04T12:03:29.848Z,20.62
2022-09-04T12:06:35.260Z,20.91
2022-09-04T12:09:02.583Z,20.59
2022-09-04T12:11:47.959Z,21.06
2022-09-04T12:14:30.287Z,21.28
2022-09-04T12:17:16.181Z,21.51
2022-09-04T12:20:06.148Z,22.02
2022-09-04T12:22:43.547Z,21.99
2022-09-04T12:25:10.544Z,21.50
2022-09-04T12:27:52.709Z,21.72
2022-09-04T12:30:21.614Z,22.28
2022-09-04T12:32:51.465Z,23.63
2022-09-04T12:35:21.282Z,24.81
2022-09-04T12:37:48.534Z,25.33
2022-09-04T12:40:28.527Z,26.15
2022-09-04T12:43:05.201Z,27.62
2022-09-04T12:45:41.258Z,27.76
2022-09-04T12:48:21.904Z,28.19
2022-09-04T12:51:05.729Z,29.06
2022-09-04T12:53:44.562Z,29.85
2022-09-04T12:56:26.542Z,30.88
2022-09-04T12:58:59.971Z,29.08
2022-09-04T13:01:38.210Z,30.41
2022-09-04T13:04:08.504Z,30.28
2022-09-04T13:06:35.383Z,30.51
2022-09-04T13:09:02.246Z,30.38
2022-09-04T13:11:35.395Z,30.81
2022-09-04T13:14:14.599Z,30.38
2022-09-04T13:16:57.628Z,29.65
2022-09-04T13:19:46.871Z,29.70
2022-09-04T13:22:32.573Z,30.68
2022-09-04T13:25:08.760Z,30.27
2022-09-04T13:28:03.311Z,30.35
2022-09-04T13:30:31.118Z,30.34
2022-09-04T13:33:00.918Z,30.91
2022-09-04T13:35:41.421Z,29.68
2022-09-04T13:38:18.947Z,30.29
2022-09-04T13:41:00.428Z,30.49
2022-09-04T13:43:27.567Z,30.53
2022-09-04T13:45:55.709Z,31.37
2022-09-04T13:48:32.940Z,30.30
2022-09-04T13:51:04.229Z,31.02
2022-09-04T13:53:59.177Z,31.07
2022-09-04T13:56:42.352Z,31.04
2022-09-04T13:59:15.038Z,31.92
2022-09-04T14:01:49.540Z,31.83
2022-09-04T14:04:26.667Z,31.87
2022-09-04T14:07:02.582Z,32.61
2022-09-04T14:09:34.338Z,32.81
2022-09-04T14:12:20.176Z,32.68
2022-09-04T14:14:55.902Z,32.33
2022-09-04T14:17:28.115Z,32.64
2022-09-04T14:20:06.631Z,32.67
2022-09-04T14:22:33.831Z,32.00
2022-09-04T14:25:01.178Z,32.59
2022-09-04T14:27:44.334Z,32.54
2022-09-04T14:30:17.683Z,33.12
2022-09-04T14:33:07.777Z,32.88
2022-09-04T14:35:42.565Z,31.83
2022-09-04T14:38:24.808Z,31.92
2022-09-04T14:40:56.743Z,31.32
2022-09-04T14:43:32.748Z,32.91
2022-09-04T14:46:06.964Z,32.90
2022-09-04T14:48:40.588Z,32.45
2022-09-04T14:51:13.342Z,32.79
2022-09-04T14:53:45.970Z,33.19
2022-09-04T14:56:13.234Z,32.59
2022-09-04T14:58:50.486Z,33.67
2022-09-04T15:01:19.029Z,33.10
2022-09-04T15:03:56.612Z,33.19
2022-09-04T15:06:31.952Z,32.38
2022-09-04T15:09:19.298Z,32.83
2022-09-04T15:11:48.744Z,32.73
2022-09-04T15:14:28.535Z,32.56
2022-09-04T15:17:00.208Z,32.83
2022-09-04T15:19:46.835Z,33.70
2022-09-04T15:22:32.627Z,33.81
2022-09-04T15:25:17.896Z,33.26
2022-09-04T15:27:47.844Z,33.79
2022-09-04T15:30:19.900Z,33.59
2022-09-04T15:32:48.342Z,33.94
2022-09-04T15:35:23.668Z,34.62
2022-09-04T15:37:52.697Z,34.29
2022-09-04T15:40:22.365Z,34.08
2022-09-04T15:42:58.916Z,33.92
2022-09-04T15:45:31.950Z,33.26
2022-09-04T15:47:58.888Z,33.90
2022-09-04T15:50:27.887Z,33.52
2022-09-04T15:53:12.163Z,33.93
2022-09-04T15:55:41.335Z,33.97
2022-09-04T15:58:08.686Z,33.60
2022-09-04T16:00:38.283Z,33.74
2022-09-04T16:03:16.888Z,34.44
2022-09-04T16:06:02.916Z,34.26
2022-09-04T16:08:37.834Z,34.99
2022-09-04T16:11:05.050Z,35.26
2022-09-04T16:13:42.994Z,35.32
2022-09-04T16:16:14.112Z,35.20
2022-09-04T16:18:48.188Z,35.25
2022-09-04T16:21:23.125Z,35.29
2022-09-04T16:23:51.006Z,35.05
2022-09-04T16:26:19.672Z,34.82
2022-09-04T16:28:53.373Z,34.75
2022-09-04T16:31:35.066Z,34.89
2022-09-04T16:34:06.652Z,34.92
2022-09-04T16:36:40.247Z,35.66
2022-09-04T16:39:14.997Z,35.73
2022-09-04T16:41:42.947Z,35.80
2022-09-04T16:44:25.624Z,35.93
2022-09-04T16:47:04.904Z,36.57
2022-09-04T16:49:42.046Z,36.80
2022-09-04T16:52:27.183Z,36.43
2022-09-04T16:54:55.896Z,36.71
2022-09-04T16:57:28.996Z,36.70
2022-09-04T17:00:24.771Z,36.65
2022-09-04T17:02:59.496Z,36.70
2022-09-04T17:05:36.401Z,36.72
2022-09-04T17:08:22.762Z,37.44
2022-09-04T17:10:58.516Z,36.92
2022-09-04T17:13:39.121Z,37.08
2022-09-04T17:16:20.636Z,37.81
2022-09-04T17:18:54.049Z,37.47
2022-09-04T17:28:24.850Z,37.76
2022-09-04T17:29:08.630Z,37.91
2022-09-04T17:29:18.567Z,37.77
2022-09-04T17:30:52.775Z,37.73
2022-09-04T17:40:36.203Z,37.95
2022-09-04T17:40:38.040Z,38.15
2022-09-04T17:40:39.217Z,38.42
2022-09-04T17:42:24.760Z,38.49
2022-09-04T17:44:54.331Z,38.27
2022-09-04T17:47:33.177Z,38.77
2022-09-04T17:50:02.585Z,38.93
2022-09-04T17:52:34.142Z,39.39
2022-09-04T17:55:12.840Z,39.35
2022-09-04T17:57:42.716Z,39.80
2022-09-04T18:00:20.628Z,40.26
2022-09-04T18:03:06.564Z,39.78
2022-09-04T18:05:42.572Z,39.81
2022-09-04T18:08:30.350Z,39.88
2022-09-04T18:11:01.163Z,39.89
2022-09-04T18:13:38.811Z,40.31
2022-09-04T18:16:16.982Z,40.47
2022-09-04T18:18:52.508Z,40.51
2022-09-04T18:21:42.106Z,40.50
2022-09-04T18:24:13.578Z,40.49
2022-09-04T18:26:48.474Z,40.78
2022-09-04T18:30:57.264Z,40.76
2022-09-04T18:37:06.969Z,41.16
2022-09-04T18:37:23.208Z,40.82
2022-09-04T18:37:56.246Z,41.86
2022-09-04T18:40:39.489Z,42.12
2022-09-04T18:50:25.044Z,41.98
2022-09-04T18:50:35.600Z,42.14
2022-09-04T18:50:36.801Z,42.57
2022-09-04T18:52:22.606Z,41.93
2022-09-04T18:54:57.589Z,42.90
2022-09-04T18:57:30.742Z,43.29
2022-09-04T19:00:13.032Z,42.80
2022-09-04T19:03:03.298Z,43.29
2022-09-04T19:05:44.943Z,43.09
2022-09-04T19:08:29.734Z,42.89
2022-09-04T19:11:01.882Z,42.87
2022-09-04T19:13:53.563Z,43.11
2022-09-04T19:16:38.509Z,43.09
2022-09-04T19:19:17.591Z,43.65
2022-09-04T19:21:58.414Z,44.05
2022-09-04T19:24:34.759Z,44.71
2022-09-04T19:27:26.659Z,44.02
2022-09-04T19:30:18.881Z,44.61
2022-09-04T19:32:58.103Z,44.08
2022-09-04T19:35:37.714Z,44.75
2022-09-04T19:45:47.553Z,44.37
2022-09-04T19:46:00.355Z,44.97
2022-09-04T19:46:07.205Z,44.15
2022-09-04T19:47:28.935Z,45.18
2022-09-04T19:53:10.091Z,45.48
2022-09-04T19:53:30.585Z,46.24
2022-09-04T19:55:48.464Z,46.18
2022-09-04T19:58:29.592Z,45.30
2022-09-04T20:01:02.386Z,46.20
2022-09-04T20:03:36.550Z,46.14
2022-09-04T20:06:21.894Z,46.42
2022-09-04T20:08:58.560Z,47.17
2022-09-04T20:11:35.550Z,46.67
2022-09-04T20:14:24.470Z,47.45
2022-09-04T20:16:55.670Z,47.48
2022-09-04T20:19:37.523Z,48.06
2022-09-04T20:22:16.083Z,47.89
2022-09-04T20:24:58.440Z,48.46
2022-09-04T20:27:35.216Z,48.80
2022-09-04T20:30:07.653Z,49.60
2022-09-04T20:32:38.437Z,49.66
2022-09-04T20:35:14.052Z,50.13
2022-09-04T20:37:44.655Z,50.41
2022-09-04T20:40:36.208Z,50.89
2022-09-04T20:43:03.120Z,50.71
2022-09-04T20:48:32.485Z,50.83
2022-09-04T20:52:58.419Z,50.40
2022-09-04T20:53:05.513Z,50.53
2022-09-04T20:54:23.334Z,50.36
2022-09-04T21:00:14.718Z,50.58
2022-09-04T21:03:08.666Z,50.29
2022-09-04T21:03:28.783Z,49.83
2022-09-04T21:06:10.978Z,50.19
2022-09-04T21:08:38.021Z,50.12
2022-09-04T21:11:38.906Z,50.59
2022-09-04T21:14:00.792Z,50.58
2022-09-04T21:16:27.689Z,50.79
2022-09-04T21:19:27.747Z,51.41
2022-09-04T21:21:57.105Z,50.48
2022-09-04T21:24:39.328Z,50.23
2022-09-04T21:27:06.593Z,51.01
2022-09-04T21:29:50.039Z,50.07
2022-09-04T21:32:33.633Z,49.98
2022-09-04T21:35:20.811Z,50.15
2022-09-04T21:37:48.058Z,49.76
2022-09-04T21:40:51.697Z,50.36
2022-09-04T21:43:19.660Z,49.74
2022-09-04T21:46:07.724Z,49.94
2022-09-04T21:48:52.376Z,49.55
2022-09-04T21:51:38.343Z,49.98
2022-09-04T21:54:13.090Z,49.70
2022-09-04T22:02:30.593Z,50.01
2022-09-04T22:02:46.082Z,49.90
2022-09-04T22:03:02.146Z,50.44
2022-09-04T22:05:29.965Z,50.31
2022-09-04T22:12:36.860Z,50.71
2022-09-04T22:13:39.303Z,50.43
2022-09-04T22:14:09.950Z,49.92
2022-09-04T22:16:46.064Z,50.29
2022-09-04T22:19:17.021Z,49.66
2022-09-04T22:22:03.820Z,49.56
2022-09-04T22:24:31.229Z,50.34
2022-09-04T22:27:18.267Z,50.59
2022-09-04T22:29:51.303Z,50.57
2022-09-04T22:32:21.457Z,50.83
2022-09-04T22:35:07.831Z,50.54
2022-09-04T22:37:35.340Z,50.46
2022-09-04T22:40:23.638Z,49.74
2022-09-04T22:42:56.043Z,50.04
2022-09-04T22:45:26.066Z,50.40
2022-09-04T22:48:10.115Z,50.15
2022-09-04T22:50:56.126Z,50.84
2022-09-04T22:53:42.898Z,49.99
2022-09-04T22:56:24.224Z,50.28
2022-09-04T22:58:55.598Z,50.90
2022-09-04T23:02:02.996Z,51.17
2022-09-04T23:04:50.340Z,51.39
2022-09-04T23:13:04.739Z,51.28
2022-09-04T23:13:48.166Z,50.86
2022-09-04T23:13:56.228Z,51.67
2022-09-04T23:16:28.307Z,51.54
2022-09-04T23:21:59.766Z,51.81
2022-09-04T23:26:43.387Z,51.38
2022-09-04T23:26:49.609Z,51.73
2022-09-04T23:28:27.076Z,51.86
2022-09-04T23:31:10.871Z,51.66
2022-09-04T23:33:56.488Z,52.13
2022-09-04T23:37:00.623Z,51.88
2022-09-04T23:40:06.768Z,52.32
2022-09-04T23:43:07.802Z,52.22
2022-09-04T23:46:11.741Z,52.70
2022-09-04T23:49:13.919Z,52.70
2022-09-04T23:52:12.160Z,52.92
2022-09-04T23:55:20.742Z,52.91
2022-09-04T23:58:33.732Z,52.87
